Terminal Aerodrome Forecast
Issued by NWS Bismarck, ND

Home | Current Version | Previous Version | Text Only | Print | Product List | Glossary Off
Versions: 1 2 3 4 5 6 7 8 9 10 11 12 13 14 15 16

000
FTUS43 KBIS 032339
TAFBIS
TAF
KBIS 032339Z 0400/0424 33014KT P6SM FEW250
     FM040100 35005KT P6SM SKC
     FM040700 VRB03KT P6SM BKN250
     FM041500 13008KT P6SM SCT090 SCT250
     FM041800 15009KT P6SM SCT080 SCT200=

USA.gov is the U.S. government's official web portal to all federal, state and local government web resources and services.